Time;durP1;ratioP1;P1;durP2;ratioP2;P2;SDS_P1;SDS_P2;PMS_P1;PMS_P2;Temp;Humidity;BMP_temperature;BMP_pressure;BME280_temperature;BME280_humidity;BME280_pressure;Samples;Min_cycle;Max_cycle;Signal;HPM_P1;HPM_P2
2023/08/25 00:01:36;;;;;;;;;4.00;4.00;;;;;19.57;70.41;99279.56;4976366;28;9543;-88
2023/08/25 00:04:03;;;;;;;;;4.00;4.00;;;;;19.63;70.10;99273.41;4976186;28;9556;-88
2023/08/25 00:06:31;;;;;;;;;5.20;5.20;;;;;19.68;70.32;99276.34;4976386;28;8829;-89
2023/08/25 00:08:59;;;;;;;;;5.40;5.40;;;;;19.74;69.74;99274.72;4976940;28;8821;-88
2023/08/25 00:11:26;;;;;;;;;5.80;5.80;;;;;19.81;69.88;99271.03;4975791;28;8852;-88
2023/08/25 00:13:54;;;;;;;;;7.20;5.20;;;;;19.86;69.51;99252.38;4976079;28;9521;-88
2023/08/25 00:16:22;;;;;;;;;3.60;3.60;;;;;19.92;69.60;99264.25;4975882;28;8824;-88
2023/08/25 00:18:49;;;;;;;;;2.80;2.80;;;;;19.95;69.59;99253.88;4975889;28;8847;-90
2023/08/25 00:21:17;;;;;;;;;2.40;2.40;;;;;19.95;69.65;99253.06;4975968;28;8848;-89
2023/08/25 00:23:45;;;;;;;;;4.00;4.00;;;;;19.95;69.42;99245.75;4976154;28;9565;-90
2023/08/25 00:26:13;;;;;;;;;4.00;4.00;;;;;19.99;69.57;99243.50;4975287;28;8832;-89
2023/08/25 00:28:40;;;;;;;;;3.20;3.20;;;;;20.00;69.24;99243.31;4974830;28;8832;-89
2023/08/25 00:31:08;;;;;;;;;4.00;4.00;;;;;20.03;69.24;99236.69;4975853;28;8887;-90
2023/08/25 00:33:35;;;;;;;;;1.00;1.00;;;;;20.05;69.37;99234.63;4975149;28;8848;-90
2023/08/25 00:36:03;;;;;;;;;1.80;1.00;;;;;20.06;69.07;99223.63;4974286;28;8868;-89
2023/08/25 00:38:30;;;;;;;;;4.60;4.60;;;;;20.08;69.22;99224.25;4974127;28;8851;-89
2023/08/25 00:40:58;;;;;;;;;5.00;4.20;;;;;20.11;69.27;99225.72;4974722;28;8833;-89
2023/08/25 00:43:26;;;;;;;;;5.40;5.40;;;;;20.10;68.84;99216.78;4976598;28;8841;-89
2023/08/25 00:45:54;;;;;;;;;5.80;4.20;;;;;20.10;69.41;99219.47;4976043;28;8895;-90
2023/08/25 00:48:21;;;;;;;;;8.00;8.00;;;;;20.11;69.07;99215.72;4975206;28;8836;-90
2023/08/25 00:50:49;;;;;;;;;4.00;4.00;;;;;20.12;69.23;99220.13;4975098;28;8840;-89
2023/08/25 00:53:17;;;;;;;;;5.00;4.00;;;;;20.12;69.20;99214.72;4977616;28;8833;-89
2023/08/25 00:55:44;;;;;;;;;6.60;5.00;;;;;20.12;69.39;99209.31;4977645;28;8856;-89
2023/08/25 00:58:14;;;;;;;;;4.60;4.60;;;;;20.13;69.06;99212.84;4978293;28;8837;-89
2023/08/25 01:00:41;;;;;;;;;7.00;5.40;;;;;20.12;69.38;99209.31;4978216;28;9534;-89
2023/08/25 01:03:09;;;;;;;;;6.20;6.20;;;;;20.13;69.08;99210.13;4978556;28;8927;-90
2023/08/25 01:05:39;;;;;;;;;7.40;7.00;;;;;20.14;69.48;99217.22;4978718;28;8845;-90
2023/08/25 01:08:08;;;;;;;;;6.20;5.40;;;;;20.14;69.60;99219.91;4978515;28;8849;-90
2023/08/25 01:10:36;;;;;;;;;8.20;7.20;;;;;20.15;69.23;99214.31;4978401;28;8829;-90
2023/08/25 01:13:05;;;;;;;;;5.00;5.00;;;;;20.18;69.21;99215.78;4978442;28;8840;-90
2023/08/25 01:15:32;;;;;;;;;7.20;6.20;;;;;20.21;69.25;99213.50;4980598;28;8836;-90
2023/08/25 01:18:00;;;;;;;;;6.60;6.60;;;;;20.23;69.56;99214.13;4978757;28;8855;-90
2023/08/25 01:20:28;;;;;;;;;7.40;7.00;;;;;20.24;69.63;99210.41;4979479;28;8950;-90
2023/08/25 01:22:56;;;;;;;;;7.20;7.00;;;;;20.25;69.17;99203.94;4979389;28;8879;-90
2023/08/25 01:25:23;;;;;;;;;5.40;5.00;;;;;20.25;69.48;99198.53;4978074;28;8887;-89
2023/08/25 01:27:51;;;;;;;;;6.20;5.40;;;;;20.26;69.18;99199.38;4978368;28;8843;-90
2023/08/25 01:30:19;;;;;;;;;5.00;5.00;;;;;20.27;69.24;99199.19;4978844;28;8873;-89
2023/08/25 01:32:48;;;;;;;;;5.00;5.00;;;;;20.29;69.45;99199.81;4979672;28;8874;-91
2023/08/25 01:35:15;;;;;;;;;4.80;4.80;;;;;20.31;69.56;99202.34;4978756;28;8848;-89
2023/08/25 01:37:43;;;;;;;;;4.00;4.00;;;;;20.32;69.81;99194.00;4978797;28;8825;-89
2023/08/25 01:40:10;;;;;;;;;9.60;8.80;;;;;20.32;69.75;99191.28;4978653;28;8837;-89
2023/08/25 01:42:38;;;;;;;;;7.60;5.00;;;;;20.33;70.13;99195.66;4978543;28;8882;-88
2023/08/25 01:45:06;;;;;;;;;7.80;7.00;;;;;20.34;69.70;99191.09;4978931;28;8836;-88
2023/08/25 01:47:33;;;;;;;;;4.00;4.00;;;;;20.33;69.60;99195.66;4978491;28;8829;-89
2023/08/25 01:50:01;;;;;;;;;5.80;5.00;;;;;20.33;69.76;99195.66;4978685;28;8836;-89
2023/08/25 01:52:29;;;;;;;;;4.00;4.00;;;;;20.34;69.50;99191.91;4978563;28;8852;-89
2023/08/25 01:54:56;;;;;;;;;6.60;5.00;;;;;20.36;70.26;99195.28;4978758;28;8824;-88
2023/08/25 01:57:24;;;;;;;;;4.40;4.40;;;;;20.36;70.09;99187.16;4978105;28;8930;-89
2023/08/25 01:59:52;;;;;;;;;7.00;6.60;;;;;20.36;69.99;99189.88;4978567;28;8869;-90
2023/08/25 02:02:19;;;;;;;;;5.80;5.00;;;;;20.37;70.21;99187.97;4977560;28;8857;-89
2023/08/25 02:04:47;;;;;;;;;4.00;4.00;;;;;20.37;69.87;99186.13;4978114;28;8852;-89
2023/08/25 02:07:14;;;;;;;;;5.00;5.00;;;;;20.39;70.03;99188.63;4978493;28;8836;-89
2023/08/25 02:09:42;;;;;;;;;7.00;7.00;;;;;20.38;70.13;99190.47;4977909;28;8853;-89
2023/08/25 02:12:10;;;;;;;;;8.00;7.60;;;;;20.38;70.12;99182.38;4977725;28;8857;-89
2023/08/25 02:14:37;;;;;;;;;4.40;4.00;;;;;20.39;70.02;99172.41;4978139;28;8860;-89
2023/08/25 02:17:05;;;;;;;;;8.40;7.00;;;;;20.38;69.89;99176.97;4977999;28;8905;-88
2023/08/25 02:19:34;;;;;;;;;3.60;3.60;;;;;20.35;70.33;99176.53;4977544;28;9499;-89
2023/08/25 02:22:03;;;;;;;;;4.60;2.80;;;;;20.35;69.93;99173.81;4977369;28;8837;-88
2023/08/25 02:24:31;;;;;;;;;5.00;5.00;;;;;20.34;69.91;99177.56;4978012;28;8874;-89
2023/08/25 02:26:58;;;;;;;;;5.00;5.00;;;;;20.32;70.27;99175.06;4977997;28;8868;-89
2023/08/25 02:29:26;;;;;;;;;5.00;5.00;;;;;20.31;70.43;99159.88;4977666;28;8840;-88
2023/08/25 02:31:54;;;;;;;;;7.00;7.00;;;;;20.30;70.21;99166.31;4978048;28;8860;-89
2023/08/25 02:34:22;;;;;;;;;4.20;4.20;;;;;20.29;70.23;99167.38;4977065;28;8839;-89
2023/08/25 02:36:49;;;;;;;;;6.20;4.80;;;;;20.27;70.48;99169.44;4977286;28;8845;-89
2023/08/25 02:39:17;;;;;;;;;5.00;4.60;;;;;20.26;69.94;99172.34;4978041;28;8828;-89
2023/08/25 02:41:44;;;;;;;;;5.00;5.00;;;;;20.26;70.20;99173.16;4977503;28;8863;-89
2023/08/25 02:44:12;;;;;;;;;5.20;4.80;;;;;20.26;70.58;99156.94;4976761;28;8859;-89
2023/08/25 02:46:42;;;;;;;;;4.40;4.20;;;;;20.26;70.29;99161.53;4978006;28;9515;-89
2023/08/25 02:49:09;;;;;;;;;4.40;4.40;;;;;20.25;70.58;99149.03;4977459;28;8868;-89
2023/08/25 02:51:37;;;;;;;;;4.00;4.00;;;;;20.24;70.09;99147.38;4977377;28;8975;-88
2023/08/25 02:54:05;;;;;;;;;5.00;5.00;;;;;20.22;70.17;99144.88;4976816;28;8829;-89
2023/08/25 02:56:33;;;;;;;;;5.00;4.20;;;;;20.20;70.59;99146.94;4977728;28;8855;-88
2023/08/25 02:59:01;;;;;;;;;4.00;4.00;;;;;20.17;70.64;99139.22;4977219;28;8844;-88
2023/08/25 03:01:29;;;;;;;;;2.80;2.80;;;;;20.13;70.52;99146.09;4977649;28;8868;-88
2023/08/25 03:03:56;;;;;;;;;5.80;4.80;;;;;20.07;70.60;99141.47;4977151;28;8918;-88
2023/08/25 03:06:24;;;;;;;;;4.00;4.00;;;;;20.01;70.72;99131.44;4976916;28;8859;-88
2023/08/25 03:08:51;;;;;;;;;4.00;3.20;;;;;19.96;71.02;99133.09;4976834;28;8824;-88
2023/08/25 03:11:19;;;;;;;;;4.00;4.00;;;;;19.89;70.98;99132.22;4977299;28;8844;-89
2023/08/25 03:13:46;;;;;;;;;2.00;2.00;;;;;19.83;71.00;99133.00;4975882;28;8833;-88
2023/08/25 03:16:14;;;;;;;;;5.00;5.00;;;;;19.74;71.20;99135.06;4977375;28;9549;-88
2023/08/25 03:18:42;;;;;;;;;5.00;4.60;;;;;19.67;71.32;99147.69;4976338;28;8867;-88
2023/08/25 03:21:10;;;;;;;;;4.20;4.00;;;;;19.60;71.45;99145.97;4976727;28;8829;-89
2023/08/25 03:23:37;;;;;;;;;6.80;6.20;;;;;19.50;71.68;99149.03;4976503;28;8856;-88
2023/08/25 03:26:05;;;;;;;;;7.00;5.80;;;;;19.42;72.36;99143.78;4977146;28;8848;-88
2023/08/25 03:28:32;;;;;;;;;5.00;4.20;;;;;19.36;72.17;99135.66;4976602;28;8844;-89
2023/08/25 03:31:00;;;;;;;;;6.80;5.80;;;;;19.27;72.38;99140.34;4976607;28;8849;-88
2023/08/25 03:33:28;;;;;;;;;5.80;4.40;;;;;19.19;72.37;99140.50;4976383;28;8844;-88
2023/08/25 03:35:55;;;;;;;;;5.20;5.20;;;;;19.10;72.20;99125.44;4975934;28;8884;-88
2023/08/25 03:38:23;;;;;;;;;7.00;4.00;;;;;19.05;72.68;99133.28;4976504;28;8859;-88
2023/08/25 03:40:51;;;;;;;;;7.20;6.80;;;;;19.01;72.44;99136.56;4976051;28;8840;-89
2023/08/25 03:43:18;;;;;;;;;7.20;7.20;;;;;18.95;72.77;99140.03;4976622;28;8833;-88
2023/08/25 03:45:46;;;;;;;;;5.00;5.00;;;;;18.91;72.86;99139.59;4975569;28;8929;-88
2023/08/25 03:48:14;;;;;;;;;7.00;5.40;;;;;18.89;73.04;99132.75;4976937;28;8853;-88
2023/08/25 03:50:41;;;;;;;;;6.20;5.80;;;;;18.85;73.17;99136.84;4976032;28;8852;-88
2023/08/25 03:53:10;;;;;;;;;7.00;6.80;;;;;18.82;72.72;99134.56;4976102;28;8920;-88
2023/08/25 03:55:42;;;;;;;;;9.00;7.00;;;;;18.79;72.96;99133.06;4976300;28;9483;-89
2023/08/25 03:58:10;;;;;;;;;2.40;1.00;;;;;18.77;73.03;99128.91;4976203;28;8853;-88
2023/08/25 04:00:38;;;;;;;;;7.20;7.20;;;;;18.74;73.35;99123.91;4976187;28;8860;-88
2023/08/25 04:03:06;;;;;;;;;6.40;6.40;;;;;18.74;72.93;99123.91;4974926;28;8824;-88
2023/08/25 04:05:34;;;;;;;;;7.00;6.00;;;;;18.70;72.80;99123.44;4975456;28;8839;-89
2023/08/25 04:08:02;;;;;;;;;8.80;7.00;;;;;18.65;73.32;99125.88;4975614;28;8873;-88
2023/08/25 04:10:29;;;;;;;;;6.20;6.20;;;;;18.61;73.12;99121.06;4975424;28;8954;-89
2023/08/25 04:12:57;;;;;;;;;7.40;6.60;;;;;18.56;73.53;99118.09;4975431;28;8828;-88
2023/08/25 04:15:24;;;;;;;;;9.80;8.60;;;;;18.51;73.45;99115.97;4975505;28;8833;-88
2023/08/25 04:17:52;;;;;;;;;6.00;5.20;;;;;18.46;73.44;99115.75;4975530;28;8829;-88
2023/08/25 04:20:20;;;;;;;;;6.20;6.00;;;;;18.42;73.76;99125.22;4975543;28;8853;-89
2023/08/25 04:22:47;;;;;;;;;8.20;7.80;;;;;18.38;73.93;99123.94;4975799;28;9585;-88
2023/08/25 04:25:15;;;;;;;;;9.00;7.40;;;;;18.35;74.13;99127.03;4976849;28;8845;-88
2023/08/25 04:27:43;;;;;;;;;9.00;7.00;;;;;18.33;73.86;99120.16;4980278;28;8833;-88
2023/08/25 04:30:11;;;;;;;;;7.80;6.60;;;;;18.32;73.60;99129.25;4979474;28;8891;-88
2023/08/25 04:32:38;;;;;;;;;6.80;6.80;;;;;18.32;74.04;99130.13;4979359;28;9510;-89
2023/08/25 04:35:06;;;;;;;;;7.00;7.00;;;;;18.33;73.83;99134.47;4979743;28;8858;-88
2023/08/25 04:37:33;;;;;;;;;6.00;6.00;;;;;18.31;73.62;99131.16;4978812;28;8878;-88
2023/08/25 04:40:01;;;;;;;;;6.20;6.20;;;;;18.30;73.72;99129.44;4978944;28;8856;-89
2023/08/25 04:42:29;;;;;;;;;5.80;5.60;;;;;18.34;73.43;99130.75;4978492;28;8837;-86
2023/08/25 04:44:56;;;;;;;;;9.60;8.20;;;;;18.34;73.50;99125.34;4978172;28;9533;-86
2023/08/25 04:47:25;;;;;;;;;6.00;5.60;;;;;18.36;73.42;99123.28;4977990;28;8837;-87
2023/08/25 04:49:57;;;;;;;;;6.60;6.00;;;;;18.37;73.36;99127.66;4978423;28;8911;-87
2023/08/25 04:52:25;;;;;;;;;7.40;7.00;;;;;18.39;73.24;99125.63;4978550;28;9098;-87
2023/08/25 04:54:52;;;;;;;;;8.60;7.00;;;;;18.43;73.73;99113.41;4979574;28;8857;-87
2023/08/25 04:57:20;;;;;;;;;9.00;9.00;;;;;18.47;73.15;99120.09;4979154;28;8840;-89
2023/08/25 04:59:48;;;;;;;;;6.00;5.60;;;;;18.52;72.60;99114.94;4979809;28;8844;-89
2023/08/25 05:02:17;;;;;;;;;6.60;6.00;;;;;18.57;72.75;99120.63;4978839;28;8852;-89
2023/08/25 05:04:44;;;;;;;;;6.00;6.00;;;;;18.62;72.66;99120.88;4978784;28;8852;-89
2023/08/25 05:07:12;;;;;;;;;9.00;6.80;;;;;18.68;72.58;99125.47;4978629;28;8863;-89
2023/08/25 05:09:40;;;;;;;;;7.40;7.00;;;;;18.74;72.22;99121.19;4978217;28;8843;-89
2023/08/25 05:12:08;;;;;;;;;7.60;7.60;;;;;18.77;72.82;99124.34;4978210;28;8867;-89
2023/08/25 05:14:38;;;;;;;;;9.00;9.00;;;;;18.79;72.39;99133.06;4978528;28;9039;-89
2023/08/25 05:17:06;;;;;;;;;9.00;9.00;;;;;18.84;71.94;99127.94;4978153;28;8981;-90
2023/08/25 05:19:34;;;;;;;;;3.00;3.00;;;;;18.89;72.27;99133.56;4976820;28;8868;-89
2023/08/25 05:22:01;;;;;;;;;10.00;9.20;;;;;18.97;72.04;99127.22;4976580;28;8833;-89
2023/08/25 05:24:29;;;;;;;;;6.80;6.80;;;;;19.01;71.62;99107.72;4976885;28;8852;-89
2023/08/25 05:26:57;;;;;;;;;9.40;7.40;;;;;19.07;72.07;99112.34;4976252;28;8837;-89
2023/08/25 05:29:25;;;;;;;;;7.40;7.00;;;;;19.12;71.75;99114.47;4976090;28;8856;-89
2023/08/25 05:31:52;;;;;;;;;7.60;6.80;;;;;19.13;71.75;99114.25;4976579;28;8841;-89
2023/08/25 05:34:20;;;;;;;;;7.00;7.00;;;;;19.15;71.71;99106.81;4976102;28;8859;-89
2023/08/25 05:36:48;;;;;;;;;10.80;8.00;;;;;19.19;71.62;99121.59;4975208;28;8840;-87
2023/08/25 05:39:18;;;;;;;;;9.00;8.20;;;;;19.24;71.27;99116.44;4976226;28;8852;-87
2023/08/25 05:41:45;;;;;;;;;7.80;7.80;;;;;19.32;71.10;99118.16;4976597;28;8832;-87
2023/08/25 05:44:13;;;;;;;;;9.20;7.60;;;;;19.43;70.81;99115.72;4975364;28;8864;-87
2023/08/25 05:46:40;;;;;;;;;7.00;7.00;;;;;19.55;70.87;99114.16;4974367;28;8848;-87
2023/08/25 05:49:08;;;;;;;;;7.00;7.00;;;;;19.68;70.41;99116.09;4974449;28;8862;-88
2023/08/25 05:51:36;;;;;;;;;9.80;8.00;;;;;19.74;70.25;99113.44;4974816;28;8844;-88
2023/08/25 05:54:03;;;;;;;;;9.60;7.80;;;;;19.79;70.48;99116.34;4975027;28;9515;-87
2023/08/25 05:56:31;;;;;;;;;7.00;7.00;;;;;19.86;70.25;99116.41;4974935;28;8975;-88
2023/08/25 05:58:59;;;;;;;;;7.60;6.60;;;;;19.94;70.01;99119.75;4973808;28;8860;-87
2023/08/25 06:01:26;;;;;;;;;12.20;9.60;;;;;20.02;69.93;99116.06;4974324;28;8840;-88
2023/08/25 06:03:56;;;;;;;;;10.80;10.80;;;;;20.06;69.99;99111.94;4975864;28;8841;-87
2023/08/25 06:06:24;;;;;;;;;5.00;5.00;;;;;20.13;69.74;99112.78;4973768;28;8860;-87
2023/08/25 06:08:52;;;;;;;;;7.80;7.00;;;;;20.22;69.35;99111.56;4971710;28;8899;-87
2023/08/25 06:11:19;;;;;;;;;7.60;7.40;;;;;20.31;69.79;99105.78;4971719;28;8875;-87
2023/08/25 06:13:47;;;;;;;;;8.00;7.40;;;;;20.39;69.17;99102.88;4972031;28;8922;-87
2023/08/25 06:16:16;;;;;;;;;8.00;7.40;;;;;20.46;68.83;99092.09;4972394;28;8883;-87
2023/08/25 06:18:44;;;;;;;;;9.60;8.00;;;;;20.50;69.14;99088.78;4973026;28;8860;-87
2023/08/25 06:21:12;;;;;;;;;7.00;6.60;;;;;20.53;69.11;99080.22;4972913;28;8837;-87
2023/08/25 06:23:40;;;;;;;;;7.20;7.20;;;;;20.57;69.06;99078.78;4973883;28;8840;-86
2023/08/25 06:26:08;;;;;;;;;8.00;8.00;;;;;20.59;69.18;99071.31;4975440;28;8844;-87
2023/08/25 06:28:35;;;;;;;;;4.60;4.60;;;;;20.65;68.56;99075.03;4975734;28;8860;-87
2023/08/25 06:31:03;;;;;;;;;5.80;5.80;;;;;20.73;68.65;99072.97;4975002;28;8939;-86
2023/08/25 06:33:31;;;;;;;;;12.20;9.60;;;;;20.79;68.85;99080.25;4974583;28;8878;-87
2023/08/25 06:35:59;;;;;;;;;8.00;7.60;;;;;20.84;68.64;99072.34;4974297;28;8915;-87
2023/08/25 06:38:27;;;;;;;;;8.80;7.60;;;;;20.89;68.66;99078.00;4973900;28;8939;-86
2023/08/25 06:40:57;;;;;;;;;7.20;7.20;;;;;21.00;68.46;99071.94;4974308;28;8876;-87
2023/08/25 06:43:25;;;;;;;;;10.00;8.20;;;;;21.11;67.86;99079.47;4974412;28;8891;-86
2023/08/25 06:45:53;;;;;;;;;7.40;7.20;;;;;21.20;68.30;99070.88;4973329;28;9541;-87
2023/08/25 06:48:21;;;;;;;;;5.00;5.00;;;;;21.30;67.55;99063.16;4972424;28;8856;-87
2023/08/25 06:50:49;;;;;;;;;8.80;7.80;;;;;21.39;67.66;99072.72;4974914;28;8876;-87
2023/08/25 06:53:17;;;;;;;;;7.00;7.00;;;;;21.50;67.64;99074.78;4974432;28;9693;-87
2023/08/25 06:55:45;;;;;;;;;9.40;8.00;;;;;21.61;67.66;99067.88;4973715;28;8844;-89
2023/08/25 06:58:13;;;;;;;;;8.00;8.00;;;;;21.72;66.92;99078.09;4972990;28;8825;-86
2023/08/25 07:00:40;;;;;;;;;7.00;7.00;;;;;21.83;67.29;99082.84;4973859;28;8883;-86
2023/08/25 07:03:08;;;;;;;;;9.40;8.20;;;;;21.91;66.69;99091.56;4973627;28;8856;-86
2023/08/25 07:05:40;;;;;;;;;7.20;6.80;;;;;21.95;66.75;99091.97;4973385;28;8871;-87
2023/08/25 07:08:07;;;;;;;;;7.80;7.80;;;;;21.95;66.67;99081.13;4974817;28;8863;-87
2023/08/25 07:10:41;;;;;;;;;7.80;7.40;;;;;21.94;67.22;99083.00;5127027;27;14109;-58
2023/08/25 07:13:09;;;;;;;;;10.00;9.80;;;;;21.98;67.11;99067.13;5109212;28;8842;-59
2023/08/25 07:15:37;;;;;;;;;4.00;3.20;;;;;22.03;66.77;99079.00;5109529;28;9888;-59
2023/08/25 07:18:05;;;;;;;;;8.00;8.00;;;;;22.07;66.77;99093.78;5109922;28;8970;-58
2023/08/25 07:20:33;;;;;;;;;6.00;6.00;;;;;22.09;67.21;99107.16;5110268;28;9517;-59
2023/08/25 07:23:01;;;;;;;;;8.20;8.00;;;;;22.06;66.71;99107.56;5110282;28;8874;-59
2023/08/25 07:25:28;;;;;;;;;11.60;8.40;;;;;21.99;67.48;99114.91;5110769;28;8932;-59
2023/08/25 07:27:56;;;;;;;;;8.60;8.00;;;;;21.84;67.44;99134.16;5110509;28;8844;-59
2023/08/25 07:30:24;;;;;;;;;11.40;9.00;;;;;21.68;68.21;99150.03;5110015;28;9669;-58
2023/08/25 07:32:52;;;;;;;;;6.00;4.60;;;;;21.52;68.34;99150.44;5110089;28;8831;-59
2023/08/25 07:35:19;;;;;;;;;9.40;7.80;;;;;21.42;69.05;99109.41;5110348;28;8863;-59
2023/08/25 07:37:47;;;;;;;;;7.60;7.40;;;;;21.40;68.75;99057.31;5109964;28;8943;-59
2023/08/25 07:40:15;;;;;;;;;9.00;8.80;;;;;21.42;69.14;99023.53;5109235;28;8925;-58
2023/08/25 07:42:44;;;;;;;;;10.00;10.00;;;;;21.41;69.00;99019.16;5109259;28;8839;-59
2023/08/25 07:45:12;;;;;;;;;8.40;8.00;;;;;21.35;69.38;99025.41;5109623;28;8921;-59
2023/08/25 07:47:41;;;;;;;;;8.80;8.80;;;;;21.36;69.37;99039.81;5110251;28;8962;-58
2023/08/25 07:50:09;;;;;;;;;8.20;8.00;;;;;21.43;69.31;99037.91;5109871;28;8848;-58
2023/08/25 07:52:36;;;;;;;;;10.20;7.80;;;;;21.57;68.67;99034.13;5109707;28;8912;-58
2023/08/25 07:55:04;;;;;;;;;11.20;11.00;;;;;21.71;68.39;99035.78;5110240;28;8878;-58
2023/08/25 07:57:32;;;;;;;;;7.60;7.20;;;;;21.85;68.10;99080.78;5110067;28;8847;-59
2023/08/25 08:00:00;;;;;;;;;9.40;9.20;;;;;21.90;67.96;99121.59;5110156;28;8849;-59
2023/08/25 08:02:28;;;;;;;;;10.20;9.40;;;;;21.81;68.50;99168.97;5110117;28;8858;-59
2023/08/25 08:04:56;;;;;;;;;12.60;11.40;;;;;21.68;68.64;99187.97;5109849;28;8844;-59
2023/08/25 08:07:24;;;;;;;;;11.40;11.40;;;;;21.54;69.03;99206.13;5109923;28;8908;-59
2023/08/25 08:09:51;;;;;;;;;11.60;11.60;;;;;21.42;69.79;99231.34;5110066;28;8825;-60
2023/08/25 08:12:19;;;;;;;;;11.00;10.60;;;;;21.29;69.69;99239.44;5109533;28;8980;-58
2023/08/25 08:14:47;;;;;;;;;8.00;8.00;;;;;21.09;70.25;99225.03;5110091;28;8850;-58
2023/08/25 08:17:15;;;;;;;;;5.00;5.00;;;;;20.88;71.04;99211.69;5109633;28;8830;-57
2023/08/25 08:19:44;;;;;;;;;5.00;5.00;;;;;20.77;71.48;99225.78;5109483;28;8829;-58
2023/08/25 08:22:12;;;;;;;;;7.80;7.00;;;;;20.65;71.55;99240.13;5094897;28;8836;-58
2023/08/25 08:24:41;;;;;;;;;10.00;9.80;;;;;20.57;71.78;99256.53;5095823;28;8960;-58
2023/08/25 08:27:17;;;;;;;;;7.80;7.80;;;;;20.49;72.29;99244.00;5095109;28;8826;-58
2023/08/25 08:29:45;;;;;;;;;9.80;9.80;;;;;20.46;72.09;99238.19;5095025;28;8842;-59
2023/08/25 08:32:13;;;;;;;;;8.40;7.80;;;;;20.44;72.17;99240.22;5095441;28;8830;-58
2023/08/25 08:34:41;;;;;;;;;11.40;11.40;;;;;20.41;72.00;99237.94;5095594;28;8837;-58
2023/08/25 08:37:10;;;;;;;;;10.80;10.20;;;;;20.40;72.06;99225.47;5095602;28;8873;-58
2023/08/25 08:39:38;;;;;;;;;10.00;9.40;;;;;20.40;72.21;99226.28;5096211;28;8826;-58
2023/08/25 08:42:06;;;;;;;;;10.60;10.00;;;;;20.38;71.87;99225.66;5095790;28;8829;-58
2023/08/25 08:44:33;;;;;;;;;8.80;8.80;;;;;20.33;72.63;99238.94;5095268;28;8855;-58
2023/08/25 08:47:01;;;;;;;;;12.40;12.20;;;;;20.27;72.16;99256.00;5095317;28;8830;-58
2023/08/25 08:49:31;;;;;;;;;13.00;11.60;;;;;20.21;73.05;99213.50;5096195;28;8903;-58
2023/08/25 08:51:59;;;;;;;;;11.00;10.20;;;;;20.16;72.36;99177.31;5095774;28;8857;-58
2023/08/25 08:54:27;;;;;;;;;13.60;9.20;;;;;20.11;72.83;99223.03;5095137;28;8860;-58
2023/08/25 08:56:55;;;;;;;;;10.40;10.40;;;;;20.04;73.49;99222.94;5094781;28;8892;-60
2023/08/25 08:59:23;;;;;;;;;10.60;10.00;;;;;20.01;73.23;99196.31;5095125;28;8834;-60
2023/08/25 09:01:51;;;;;;;;;12.20;11.00;;;;;20.01;73.31;99177.38;5095336;28;8818;-59
2023/08/25 09:04:18;;;;;;;;;9.80;8.80;;;;;19.97;73.45;99178.84;5094725;28;8834;-58
2023/08/25 09:06:49;;;;;;;;;12.20;9.60;;;;;19.96;73.30;99192.56;5094725;28;8838;-58
2023/08/25 09:09:19;;;;;;;;;14.40;12.80;;;;;19.93;73.12;99201.88;5094378;28;8961;-61
2023/08/25 09:11:46;;;;;;;;;14.00;14.00;;;;;19.89;73.85;99219.53;5094880;28;8904;-59
2023/08/25 09:14:14;;;;;;;;;12.60;10.60;;;;;19.82;73.74;99196.22;5094218;28;8834;-59
2023/08/25 09:16:42;;;;;;;;;13.40;11.80;;;;;19.78;74.17;99144.41;5094332;28;8911;-59
2023/08/25 09:19:11;;;;;;;;;13.80;12.00;;;;;19.76;74.73;99111.38;5094601;28;8964;-60
2023/08/25 09:21:39;;;;;;;;;15.00;13.00;;;;;19.79;74.27;99115.53;5094035;28;8848;-59
2023/08/25 09:24:07;;;;;;;;;14.40;13.20;;;;;19.80;74.42;99160.44;5094211;28;8848;-60
2023/08/25 09:26:35;;;;;;;;;9.60;9.60;;;;;19.79;74.96;99186.63;5095025;28;8830;-59
2023/08/25 09:29:03;;;;;;;;;10.00;10.00;;;;;19.76;74.48;99178.94;5094348;28;9572;-60
2023/08/25 09:31:32;;;;;;;;;10.00;7.80;;;;;19.78;74.83;99168.75;5094198;28;8841;-59
2023/08/25 09:34:03;;;;;;;;;11.40;10.40;;;;;19.81;74.80;99146.72;5093807;28;9514;-59
2023/08/25 09:36:30;;;;;;;;;15.60;14.60;;;;;19.84;74.47;99177.91;5094807;28;8911;-60
2023/08/25 09:38:58;;;;;;;;;13.80;12.20;;;;;19.83;74.86;99182.50;5094693;28;8960;-59
2023/08/25 09:41:37;;;;;;;;;13.00;13.00;;;;;19.84;74.61;99159.00;5094687;28;8875;-59
2023/08/25 09:44:05;;;;;;;;;10.40;10.00;;;;;19.85;75.02;99174.16;5095098;28;8845;-58
2023/08/25 09:46:32;;;;;;;;;13.60;13.60;;;;;19.85;75.08;99163.38;5094732;28;8841;-59
2023/08/25 09:49:01;;;;;;;;;13.00;11.00;;;;;19.88;74.99;99125.97;5093995;28;8872;-58
2023/08/25 09:51:29;;;;;;;;;16.00;14.20;;;;;19.92;75.19;99121.00;5092689;28;8842;-59
2023/08/25 09:53:57;;;;;;;;;15.00;14.40;;;;;19.97;75.41;99107.72;5092597;28;8826;-58
2023/08/25 09:56:25;;;;;;;;;13.80;13.60;;;;;20.01;74.91;99119.81;5093413;28;8834;-58
2023/08/25 09:58:53;;;;;;;;;7.60;6.60;;;;;20.03;75.46;99123.94;5094179;28;8830;-59
2023/08/25 10:01:21;;;;;;;;;12.20;8.20;;;;;20.05;74.90;99124.63;5094271;28;8868;-59
2023/08/25 10:03:49;;;;;;;;;11.20;10.20;;;;;20.07;75.20;99102.78;5093431;28;8833;-59
2023/08/25 10:06:18;;;;;;;;;10.20;10.00;;;;;20.09;75.16;99096.13;5094121;28;8834;-59
2023/08/25 10:08:46;;;;;;;;;17.80;13.60;;;;;20.12;74.81;99109.28;5094150;28;8969;-59
2023/08/25 10:11:14;;;;;;;;;10.20;10.20;;;;;20.16;74.99;99107.00;5094316;28;8837;-61
2023/08/25 10:13:42;;;;;;;;;10.00;7.40;;;;;20.18;74.91;99116.56;5094166;28;8844;-59
2023/08/25 10:16:09;;;;;;;;;11.00;10.20;;;;;20.24;75.12;99125.75;5093587;28;8834;-59
2023/08/25 10:18:38;;;;;;;;;12.60;11.00;;;;;20.33;74.59;99125.34;5093878;28;8844;-58
2023/08/25 10:21:06;;;;;;;;;7.80;7.40;;;;;20.52;74.32;99112.91;5093964;28;8822;-59
2023/08/25 10:23:34;;;;;;;;;9.60;9.60;;;;;20.69;73.94;99120.44;5093337;28;8849;-58
2023/08/25 10:26:02;;;;;;;;;4.80;4.80;;;;;20.80;73.65;99109.00;5094008;28;8830;-59
2023/08/25 10:28:30;;;;;;;;;9.60;8.00;;;;;20.85;73.63;99136.25;5093509;28;8833;-58
2023/08/25 10:30:59;;;;;;;;;7.80;7.00;;;;;20.84;73.59;99224.78;5092930;28;8845;-58
2023/08/25 10:33:27;;;;;;;;;10.60;10.60;;;;;20.78;73.83;99278.88;5092484;28;8967;-59
2023/08/25 10:35:55;;;;;;;;;10.60;9.40;;;;;20.73;73.93;99274.06;5093142;28;8857;-58
2023/08/25 10:38:23;;;;;;;;;7.40;7.20;;;;;20.63;74.04;99253.03;5093173;28;8834;-57
2023/08/25 10:40:50;;;;;;;;;7.00;7.00;;;;;20.54;73.95;99254.25;5092433;28;8826;-58
2023/08/25 10:43:18;;;;;;;;;10.20;8.40;;;;;20.44;74.88;99235.66;5093079;28;8900;-58
2023/08/25 10:45:46;;;;;;;;;9.60;8.40;;;;;20.34;74.66;99212.72;5093107;28;8853;-58
2023/08/25 10:48:14;;;;;;;;;8.00;7.60;;;;;20.28;75.09;99217.09;5092881;28;8821;-58
2023/08/25 10:51:01;;;;;;;;;3.80;2.00;;;;;20.22;75.27;99269.25;5092560;28;8834;-58
2023/08/25 10:53:30;;;;;;;;;8.00;7.20;;;;;20.15;75.19;99314.34;5092589;28;8845;-58
2023/08/25 10:55:58;;;;;;;;;8.80;8.80;;;;;20.11;75.62;99325.78;5092273;28;8891;-56
2023/08/25 10:58:26;;;;;;;;;11.40;11.40;;;;;20.07;75.47;99335.28;5092683;28;8834;-57
2023/08/25 11:00:57;;;;;;;;;8.00;7.40;;;;;20.00;76.21;99320.84;5092249;28;8841;-56
2023/08/25 11:03:25;;;;;;;;;8.00;7.80;;;;;19.92;75.79;99291.28;5092899;28;8818;-57
2023/08/25 11:05:53;;;;;;;;;7.60;7.00;;;;;19.86;75.67;99276.69;5092579;28;8869;-58
2023/08/25 11:08:23;;;;;;;;;8.80;8.40;;;;;19.81;76.82;99264.81;5092139;28;8841;-58
2023/08/25 11:10:51;;;;;;;;;7.80;7.00;;;;;19.76;76.81;99257.28;5092939;28;9741;-57
2023/08/25 11:13:18;;;;;;;;;5.00;5.00;;;;;19.74;76.46;99237.75;5093091;28;9585;-59
2023/08/25 11:15:47;;;;;;;;;9.40;6.20;;;;;19.78;76.64;99233.59;5092619;28;8845;-57
2023/08/25 11:18:16;;;;;;;;;8.40;8.40;;;;;19.78;76.57;99266.03;5092374;28;8829;-59
2023/08/25 11:20:44;;;;;;;;;8.00;8.00;;;;;19.76;76.38;99278.06;5092839;28;8922;-58
2023/08/25 11:23:12;;;;;;;;;10.20;10.00;;;;;19.74;76.95;99313.41;5092682;28;8841;-58
2023/08/25 11:25:47;;;;;;;;;7.20;7.00;;;;;19.71;76.63;99321.88;5093403;28;8834;-58
2023/08/25 11:28:16;;;;;;;;;7.20;7.00;;;;;19.72;76.59;99307.34;5092232;28;8931;-58
2023/08/25 11:30:45;;;;;;;;;7.40;7.00;;;;;19.69;77.33;99296.94;5092453;28;8919;-59
2023/08/25 11:33:13;;;;;;;;;7.00;5.40;;;;;19.67;77.34;99285.50;5091794;28;8874;-58
2023/08/25 11:35:40;;;;;;;;;7.20;7.20;;;;;19.60;77.02;99311.63;5092184;28;8850;-57
2023/08/25 11:38:08;;;;;;;;;8.20;5.80;;;;;19.55;76.75;99295.16;5092745;28;8826;-58
2023/08/25 11:40:36;;;;;;;;;4.80;4.80;;;;;19.55;77.64;99208.69;5092556;28;8830;-58
2023/08/25 11:43:06;;;;;;;;;7.00;5.20;;;;;19.60;77.51;99197.31;5091973;28;8945;-57